ADDS METAR Data INFO
IDs: Format: Raw Decoded Include TAF

Data at: 1547 UTC 12 Dec 2017

KPRB 121453Z AUTO 00000KT 10SM CLR M03/M09 A3032 RMK AO2 SLP270 T10281089 53002
KPRB 121353Z AUTO 00000KT 10SM CLR M04/M09 A3031 RMK AO2 SLP266 T10391094
KPRB 121253Z AUTO 00000KT 10SM CLR M03/M09 A3031 RMK AO2 SLP265 T10281094
KPRB 121153Z AUTO 00000KT 10SM CLR M01/M08 A3031 RMK AO2 SLP264 T10111083 10083 21028 58003
KPRB 121053Z AUTO 00000KT 10SM CLR 00/M08 A3033 RMK AO2 SLP268 T00001083
KPRB 120953Z AUTO 00000KT 10SM CLR M02/M08 A3033 RMK AO2 SLP269 T10171083
KPRB 120853Z AUTO 00000KT 10SM CLR 02/M10 A3033 RMK AO2 SLP268 T00221100 51003
KPRB 120753Z AUTO 00000KT 10SM CLR 04/M09 A3032 RMK AO2 SLP269 T00391089 402611022
KPRB 120653Z AUTO 06005KT 10SM CLR 03/M07 A3032 RMK AO2 SLP268 T00281067
KPRB 120553Z AUTO 08003KT 9SM CLR 08/M04 A3032 RMK AO2 SLP267 T00781044 10239 20067 53012
KPRB 120453Z AUTO 11007KT 10SM CLR 08/M04 A3030 RMK AO2 SLP264 T00831044
KPRB 120353Z AUTO 11006KT 10SM CLR 11/M05 A3029 RMK AO2 SLP261 T01111050
KPRB 120253Z AUTO 12006KT 10SM CLR 13/M06 A3028 RMK AO2 SLP255 T01331056 53020
KPRB 120153Z AUTO 09010KT 10SM CLR 16/M06 A3026 RMK AO2 SLP247 T01561061
KPRB 120053Z AUTO 10011KT 10SM CLR 19/M11 A3024 RMK AO2 SLP239 T01891106
KPRB 112353Z AUTO 09010KT 10SM CLR 24/M14 A3022 RMK AO2 SLP232 T02391139 10261 20094 55007
KPRB 112253Z AUTO 09011KT 10SM CLR 26/M16 A3022 RMK AO2 SLP230 T02561161
KPRB 112153Z AUTO 09010KT 10SM CLR 26/M14 A3022 RMK AO2 SLP232 T02611144
KPRB 112053Z AUTO 31004KT 10SM CLR 22/M09 A3024 RMK AO2 SLP238 T02171094 58026
KPRB 111953Z AUTO 35004KT 10SM CLR 18/M09 A3027 RMK AO2 SLP249 T01831094
KPRB 111853Z AUTO 00000KT 10SM CLR 14/M07 A3031 RMK AO2 SLP263 T01391067
KPRB 111753Z AUTO 00000KT 10SM CLR 09/M07 A3032 RMK AO2 SLP268 T00941072 10094 21022 51007
KPRB 111653Z AUTO 00000KT 10SM CLR 04/M08 A3032 RMK AO2 SLP269 T00391078
KPRB 111553Z AUTO 00000KT 10SM CLR M01/M09 A3031 RMK AO2 SLP267 T10111089
KPRB 111453Z AUTO 00000KT 10SM CLR M01/M08 A3030 RMK AO2 SLP262 T10061083 53013
KPRB 111353Z AUTO 00000KT 10SM CLR M01/M09 A3028 RMK AO2 SLP257 T10111089
KPRB 111253Z AUTO 00000KT 10SM CLR 01/M08 A3027 RMK AO2 SLP250 T00061083
KPRB 111153Z AUTO 20003KT 10SM CLR 01/M08 A3026 RMK AO2 SLP247 T00111078 10083 20000 51006
KPRB 111053Z AUTO 12003KT 10SM CLR 01/M09 A3026 RMK AO2 SLP246 T00111089
KPRB 110953Z AUTO 00000KT 10SM CLR 03/M08 A3026 RMK AO2 SLP244 T00281078
KPRB 110853Z AUTO 00000KT 10SM CLR 07/M07 A3024 RMK AO2 SLP239 T00671072 50002
KPRB 110753Z AUTO VRB03KT 10SM CLR 07/M07 A3025 RMK AO2 SLP241 T00671067 402391028
KPRB 110653Z AUTO 07003KT 10SM CLR 06/M08 A3024 RMK AO2 SLP242 T00611078
KPRB 110553Z AUTO 00000KT 10SM CLR 08/M08 A3024 RMK AO2 SLP240 T00781078 10211 20072 53014
KPRB 110453Z AUTO 08003KT 10SM CLR 07/M07 A3022 RMK AO2 SLP236 T00721072
KPRB 110353Z AUTO 13005KT 10SM CLR 13/M06 A3020 RMK AO2 SLP230 T01281056